Time;durP1;ratioP1;P1;durP2;ratioP2;P2;SDS_P1;SDS_P2;PMS_P1;PMS_P2;Temp;Humidity;BMP_temperature;BMP_pressure;BME280_temperature;BME280_humidity;BME280_pressure;Samples;Min_cycle;Max_cycle;Signal;HPM_P1;HPM_P2
2022/06/21 00:02:01;;;;;;;5.55;4.32;;;;;;;25.85;63.69;100392.94;4835312;29;20406;-68
2022/06/21 00:04:39;;;;;;;5.07;4.57;;;;;;;25.90;63.69;100398.16;4832595;29;20062;-68
2022/06/21 00:07:15;;;;;;;6.13;4.93;;;;;;;25.93;63.19;100390.97;4829352;29;20058;-68
2022/06/21 00:09:42;;;;;;;5.78;5.20;;;;;;;26.07;62.54;100387.47;4834265;29;20514;-68
2022/06/21 00:12:12;;;;;;;5.22;4.75;;;;;;;26.27;62.47;100391.63;4831919;29;20061;-69
2022/06/21 00:14:42;;;;;;;6.95;5.15;;;;;;;26.27;63.07;100397.22;4840874;29;20061;-67
2022/06/21 00:17:15;;;;;;;7.10;5.53;;;;;;;26.09;63.37;100397.09;4841453;29;20050;-67
2022/06/21 00:19:44;;;;;;;6.43;5.78;;;;;;;25.90;64.19;100400.97;4827642;29;20050;-67
2022/06/21 00:22:17;;;;;;;7.45;5.30;;;;;;;25.72;65.23;100406.47;4840286;29;20603;-68
2022/06/21 00:24:45;;;;;;;8.10;5.40;;;;;;;25.70;65.14;100409.63;4840249;29;20489;-68
2022/06/21 00:27:18;;;;;;;12.32;6.18;;;;;;;25.75;64.75;100414.88;4840341;29;20544;-69
2022/06/21 00:29:46;;;;;;;7.03;5.72;;;;;;;25.84;64.75;100403.34;4840542;29;20057;-69
2022/06/21 00:32:19;;;;;;;6.32;5.72;;;;;;;25.99;64.22;100411.84;4840616;29;20062;-69
2022/06/21 00:34:47;;;;;;;9.40;5.78;;;;;;;26.00;63.84;100403.03;4840381;29;20053;-69
2022/06/21 00:37:20;;;;;;;7.28;5.90;;;;;;;25.96;63.92;100407.81;4840776;29;20073;-69
2022/06/21 00:39:49;;;;;;;9.43;5.85;;;;;;;25.75;64.80;100411.28;4841105;29;20076;-69
2022/06/21 00:42:28;;;;;;;9.23;5.85;;;;;;;25.56;65.29;100406.75;4841041;29;20054;-69
2022/06/21 00:44:56;;;;;;;7.50;6.07;;;;;;;25.40;66.25;100410.56;4844035;29;20046;-69
2022/06/21 00:47:40;;;;;;;7.82;5.88;;;;;;;25.21;66.67;100395.59;4844725;29;20539;-69
2022/06/21 00:50:26;;;;;;;7.75;6.32;;;;;;;25.14;66.96;100406.75;4844678;29;20050;-69
2022/06/21 00:53:06;;;;;;;6.28;5.63;;;;;;;25.50;65.50;100407.06;4844965;29;20058;-69
2022/06/21 00:55:56;;;;;;;10.20;5.63;;;;;;;25.64;64.92;100405.59;4832905;29;20050;-69
2022/06/21 00:58:26;;;;;;;5.32;4.78;;;;;;;25.62;65.12;100403.19;4844128;29;20072;-69
2022/06/21 01:01:00;;;;;;;5.82;5.32;;;;;;;25.56;65.29;100406.75;4835750;29;20073;-69
2022/06/21 01:03:40;;;;;;;6.97;6.07;;;;;;;25.34;65.38;100398.94;4828189;29;20054;-69
2022/06/21 01:06:35;;;;;;;6.68;5.32;;;;;;;25.30;65.81;100398.09;4834490;29;20421;-69
2022/06/21 01:09:08;;;;;;;10.13;5.70;;;;;;;25.20;65.80;100405.19;4829885;29;20050;-69
2022/06/21 01:11:42;;;;;;;7.00;5.20;;;;;;;25.12;66.53;100399.91;4844506;29;20402;-69
2022/06/21 01:14:10;;;;;;;;;;;;;;;25.13;65.91;100412.72;4845032;29;20058;-69
2022/06/21 01:16:39;;;;;;;8.50;4.78;;;;;;;24.90;65.95;100397.69;4844165;29;19935;-69
2022/06/21 01:19:14;;;;;;;5.88;4.45;;;;;;;24.84;66.04;100404.84;4831122;29;20057;-69
2022/06/21 01:21:44;;;;;;;5.60;4.80;;;;;;;24.73;66.11;100415.06;4844555;29;20054;-69
2022/06/21 01:24:24;;;;;;;7.95;5.15;;;;;;;24.75;65.87;100410.69;4844149;29;20042;-69
2022/06/21 01:26:59;;;;;;;6.75;4.82;;;;;;;25.04;65.07;100407.44;4834834;29;20058;-69
2022/06/21 01:29:30;;;;;;;6.32;5.03;;;;;;;25.03;64.90;100417.03;4832010;29;20055;-69
2022/06/21 01:32:01;;;;;;;6.32;4.63;;;;;;;25.03;64.86;100405.81;4840081;29;20057;-69
2022/06/21 01:34:30;;;;;;;7.88;5.28;;;;;;;24.96;64.96;100407.38;4843970;29;20054;-69
2022/06/21 01:37:08;;;;;;;7.40;4.70;;;;;;;25.09;64.63;100404.28;4843734;29;20053;-69
2022/06/21 01:39:51;;;;;;;7.35;5.10;;;;;;;24.83;65.62;100397.63;4843708;29;20069;-67
2022/06/21 01:42:27;;;;;;;5.28;4.78;;;;;;;24.80;65.88;100392.75;4844168;29;20053;-68
2022/06/21 01:44:59;;;;;;;8.88;5.25;;;;;;;24.88;65.31;100394.47;4843696;29;20061;-67
2022/06/21 01:47:35;;;;;;;5.20;4.70;;;;;;;24.89;65.29;100395.28;4844121;29;20069;-68
2022/06/21 01:50:05;;;;;;;6.72;4.80;;;;;;;24.91;65.27;100393.72;4843667;29;20050;-68
2022/06/21 01:52:36;;;;;;;6.18;4.53;;;;;;;25.09;64.53;100393.88;4843721;29;20058;-68
2022/06/21 01:55:11;;;;;;;6.55;4.30;;;;;;;24.98;65.20;100392.19;4843598;29;20760;-68
2022/06/21 01:57:39;;;;;;;5.85;4.70;;;;;;;24.94;65.69;100387.34;4843670;29;20446;-68
2022/06/21 02:00:08;;;;;;;5.25;4.53;;;;;;;25.02;65.04;100396.59;4843118;29;20069;-68
2022/06/21 02:02:54;;;;;;;5.60;4.75;;;;;;;25.07;64.54;100395.47;4843558;29;20054;-68
2022/06/21 02:05:51;;;;;;;5.30;4.55;;;;;;;25.02;64.37;100385.41;4843583;29;20060;-68
2022/06/21 02:08:24;;;;;;;6.22;5.13;;;;;;;25.12;63.85;100385.91;4825120;29;20053;-68
2022/06/21 02:10:58;;;;;;;7.15;4.55;;;;;;;24.93;64.55;100390.53;4843533;29;20046;-68
2022/06/21 02:13:25;;;;;;;;;;;;;;;24.91;64.56;100390.91;4843183;29;20062;-68
2022/06/21 02:15:59;;;;;;;6.47;4.75;;;;;;;24.95;64.19;100394.56;4843231;29;19924;-69
2022/06/21 02:18:32;;;;;;;7.65;4.68;;;;;;;24.97;64.21;100391.34;4843180;29;20409;-68
2022/06/21 02:21:09;;;;;;;6.88;4.55;;;;;;;24.99;64.49;100397.41;4835434;29;20394;-68
2022/06/21 02:23:40;;;;;;;5.72;5.13;;;;;;;24.91;64.69;100384.50;4836296;29;20426;-68
2022/06/21 02:26:08;;;;;;;6.88;4.88;;;;;;;24.76;65.41;100391.91;4834477;29;20053;-69
2022/06/21 02:28:37;;;;;;;6.03;5.07;;;;;;;24.65;65.93;100384.22;4838215;29;20053;-68
2022/06/21 02:31:05;;;;;;;5.38;4.80;;;;;;;24.86;65.28;100384.84;4837997;29;20057;-68
2022/06/21 02:33:33;;;;;;;5.50;5.03;;;;;;;24.79;65.49;100380.75;4843175;29;20057;-67
2022/06/21 02:36:10;;;;;;;5.43;4.93;;;;;;;24.80;65.52;100375.97;4842921;29;20061;-68
2022/06/21 02:38:43;;;;;;;5.50;4.90;;;;;;;24.78;66.20;100386.75;4842796;29;20061;-69
2022/06/21 02:41:25;;;;;;;8.75;5.18;;;;;;;24.58;66.54;100386.91;4842483;29;20053;-69
2022/06/21 02:43:58;;;;;;;7.75;4.70;;;;;;;24.58;65.91;100392.50;4843099;29;20049;-69
2022/06/21 02:46:34;;;;;;;5.68;5.05;;;;;;;24.42;66.44;100390.72;4842672;29;20520;-69
2022/06/21 02:49:20;;;;;;;6.00;4.55;;;;;;;24.34;66.56;100393.81;4842253;29;20053;-69
2022/06/21 02:51:54;;;;;;;8.70;4.53;;;;;;;24.33;66.31;100393.00;4842536;29;20046;-69
2022/06/21 02:54:26;;;;;;;5.13;4.63;;;;;;;24.39;66.39;100391.47;4842961;29;20450;-68
2022/06/21 02:57:12;;;;;;;5.80;4.97;;;;;;;24.52;65.39;100389.25;4842326;29;20627;-69
2022/06/21 02:59:42;;;;;;;7.63;4.70;;;;;;;24.34;66.39;100394.59;4842537;29;20054;-69
2022/06/21 03:02:17;;;;;;;8.23;5.28;;;;;;;24.24;67.00;100392.50;4842289;29;20505;-68
2022/06/21 03:04:56;;;;;;;7.22;5.10;;;;;;;24.34;66.49;100400.19;4823227;29;20059;-69
2022/06/21 03:07:46;;;;;;;5.43;4.40;;;;;;;24.07;67.42;100408.63;4829398;29;20218;-69
2022/06/21 03:10:18;;;;;;;5.72;4.97;;;;;;;24.13;67.22;100411.88;4842184;29;20437;-68
2022/06/21 03:12:49;;;;;;;4.32;3.92;;;;;;;23.98;67.63;100425.63;4842686;29;20072;-68
2022/06/21 03:15:18;;;;;;;6.07;4.25;;;;;;;24.12;66.98;100415.88;4842098;29;20061;-68
2022/06/21 03:17:54;;;;;;;4.82;4.18;;;;;;;24.20;66.66;100416.78;4842082;29;20054;-68
2022/06/21 03:20:22;;;;;;;5.40;4.72;;;;;;;24.01;67.36;100418.50;4842078;29;20062;-68
2022/06/21 03:22:53;;;;;;;8.18;4.90;;;;;;;24.06;67.17;100415.38;4841932;29;20053;-68
2022/06/21 03:25:29;;;;;;;4.95;4.30;;;;;;;24.00;67.33;100425.28;4842167;29;20061;-68
2022/06/21 03:28:00;;;;;;;5.80;4.43;;;;;;;24.04;67.33;100417.72;4841933;29;20057;-68
2022/06/21 03:30:34;;;;;;;7.28;5.03;;;;;;;24.14;66.98;100419.91;4841886;29;20057;-68
2022/06/21 03:33:04;;;;;;;8.68;4.65;;;;;;;24.08;67.06;100420.59;4822740;29;20047;-68
2022/06/21 03:35:34;;;;;;;7.03;5.03;;;;;;;23.88;67.99;100423.47;4832146;29;20062;-68
2022/06/21 03:38:03;;;;;;;5.82;4.55;;;;;;;23.85;68.52;100430.63;4841682;29;20057;-68
2022/06/21 03:43:26;;;;;;;8.60;4.60;;;;;;;23.80;68.89;100433.72;4829684;29;20046;-68
2022/06/21 03:45:59;;;;;;;7.38;4.50;;;;;;;23.86;68.39;100440.59;4832895;29;20066;-67
2022/06/21 03:48:29;;;;;;;5.05;4.65;;;;;;;23.87;68.76;100438.63;4841448;29;20069;-67
2022/06/21 03:51:09;;;;;;;5.88;4.75;;;;;;;23.86;68.43;100451.00;4834577;29;20050;-68
2022/06/21 03:53:47;;;;;;;5.75;5.00;;;;;;;23.95;67.95;100445.16;4822741;29;20058;-68
2022/06/21 03:56:29;;;;;;;5.05;4.55;;;;;;;23.91;68.12;100450.69;4827822;29;20046;-68
2022/06/21 03:59:22;;;;;;;5.75;4.68;;;;;;;23.94;67.89;100454.72;4837261;29;20071;-68
2022/06/21 04:02:03;;;;;;;8.48;5.88;;;;;;;23.93;67.66;100458.66;4832131;29;20051;-67
2022/06/21 04:04:37;;;;;;;6.47;5.00;;;;;;;24.01;67.62;100461.19;4829042;29;20049;-69
2022/06/21 04:07:20;;;;;;;6.30;4.70;;;;;;;23.92;67.70;100462.66;4824782;29;20414;-68
2022/06/21 04:09:56;;;;;;;5.20;4.70;;;;;;;23.95;68.03;100461.91;4823214;29;20050;-68
2022/06/21 04:12:43;;;;;;;7.05;5.35;;;;;;;24.13;67.62;100471.41;4822877;29;20061;-68
2022/06/21 04:15:24;;;;;;;6.60;5.22;;;;;;;24.25;66.93;100469.59;4823238;29;20054;-68
2022/06/21 04:18:36;;;;;;;6.78;4.47;;;;;;;24.18;66.65;100475.06;4825358;29;20502;-68
2022/06/21 04:21:09;;;;;;;6.15;5.22;;;;;;;24.14;67.01;100463.81;4766249;30;20060;-68
2022/06/21 04:24:12;;;;;;;5.25;4.70;;;;;;;24.18;66.89;100463.91;4834749;29;20069;-69
2022/06/21 04:26:49;;;;;;;7.15;5.15;;;;;;;24.23;66.64;100477.53;4812037;29;20137;-69
2022/06/21 04:29:27;;;;;;;9.45;4.80;;;;;;;24.69;64.88;100471.75;4814109;29;20077;-74
2022/06/21 04:31:58;;;;;;;5.45;4.80;;;;;;;24.94;63.65;100465.69;4823872;29;20069;-75
2022/06/21 04:35:05;;;;;;;5.95;4.32;;;;;;;25.22;62.45;100464.41;4829491;29;20054;-73
2022/06/21 04:37:47;;;;;;;8.93;4.93;;;;;;;25.39;62.19;100459.38;4826089;29;20050;-74
2022/06/21 04:40:31;;;;;;;6.22;4.72;;;;;;;25.45;61.53;100460.63;4832535;29;20065;-76
2022/06/21 04:43:06;;;;;;;;;;;;;;;25.50;61.41;100456.66;4829163;29;20050;-76
2022/06/21 04:45:50;;;;;;;7.85;4.68;;;;;;;25.61;60.42;100454.00;4837108;29;19951;-75
2022/06/21 04:48:46;;;;;;;5.72;4.20;;;;;;;25.62;60.66;100462.00;4836409;29;20506;-74
2022/06/21 04:51:33;;;;;;;6.10;4.53;;;;;;;25.68;60.52;100458.84;4841203;29;20513;-74
2022/06/21 04:54:26;;;;;;;6.38;4.65;;;;;;;25.83;59.89;100463.41;4841170;29;20061;-76
2022/06/21 04:57:25;;;;;;;7.43;5.13;;;;;;;26.01;60.02;100463.50;4825715;29;20061;-74
2022/06/21 05:00:05;;;;;;;8.18;5.05;;;;;;;26.06;60.04;100458.75;4830427;29;20401;-74
2022/06/21 05:02:42;;;;;;;6.43;4.28;;;;;;;26.07;60.10;100469.56;4807764;29;20047;-74
2022/06/21 05:05:16;;;;;;;5.82;5.10;;;;;;;26.19;59.42;100474.03;4825144;29;20482;-74
2022/06/21 05:07:49;;;;;;;7.55;4.43;;;;;;;26.34;58.87;100471.38;4822834;29;20524;-75
2022/06/21 05:10:23;;;;;;;7.55;4.75;;;;;;;26.43;58.54;100471.81;4828925;29;20057;-74
2022/06/21 05:12:53;;;;;;;7.57;4.45;;;;;;;26.42;58.54;100481.44;4823301;29;20069;-75
2022/06/21 05:15:29;;;;;;;8.52;4.40;;;;;;;26.37;58.57;100473.38;4809352;29;20046;-74
2022/06/21 05:18:07;;;;;;;5.65;4.53;;;;;;;26.37;58.28;100467.78;4839302;29;20038;-74
2022/06/21 05:20:37;;;;;;;6.05;4.70;;;;;;;26.36;58.94;100478.22;4838296;29;20408;-74
2022/06/21 05:23:10;;;;;;;6.88;4.80;;;;;;;26.43;58.83;100477.44;4809013;29;20058;-75
2022/06/21 05:25:42;;;;;;;5.65;4.63;;;;;;;26.38;58.50;100478.63;4829143;29;20046;-75
2022/06/21 05:28:19;;;;;;;7.30;5.00;;;;;;;26.39;58.79;100482.22;4824158;29;20411;-75
2022/06/21 05:30:57;;;;;;;6.85;4.80;;;;;;;26.50;58.56;100477.50;4828109;29;20493;-75
2022/06/21 05:33:39;;;;;;;7.10;5.95;;;;;;;26.71;59.21;100478.78;4825027;29;20054;-75
2022/06/21 05:36:13;;;;;;;10.68;5.93;;;;;;;26.82;58.62;100488.03;4809686;29;20051;-75
2022/06/21 05:38:55;;;;;;;9.07;5.70;;;;;;;26.93;58.56;100487.31;4825449;29;20049;-76
2022/06/21 05:41:34;;;;;;;7.60;6.82;;;;;;;26.99;59.02;100484.91;4825306;29;20409;-75
2022/06/21 05:44:13;;;;;;;9.30;7.28;;;;;;;27.00;58.33;100484.53;4832677;29;20045;-74
2022/06/21 05:46:46;;;;;;;12.68;7.15;;;;;;;27.06;58.77;100480.13;4824042;29;20046;-74
2022/06/21 05:49:26;;;;;;;11.43;7.28;;;;;;;27.00;59.28;100480.91;4823570;29;20502;-74
2022/06/21 05:51:57;;;;;;;8.52;7.10;;;;;;;26.97;59.24;100479.69;4823462;29;20775;-74
2022/06/21 05:54:35;;;;;;;10.35;7.90;;;;;;;26.99;60.11;100485.75;4812974;29;20042;-74
2022/06/21 05:57:06;;;;;;;11.77;9.50;;;;;;;27.07;59.78;100498.59;4823408;29;20043;-74
2022/06/21 05:59:34;;;;;;;11.25;8.07;;;;;;;27.28;58.88;100491.44;4807371;29;20042;-73
2022/06/21 06:02:10;;;;;;;11.23;8.25;;;;;;;27.26;59.56;100491.00;4822977;29;20498;-74
2022/06/21 06:04:51;;;;;;;12.77;8.32;;;;;;;27.34;59.27;100501.09;4823057;29;20498;-74
2022/06/21 06:07:33;;;;;;;10.68;7.30;;;;;;;27.50;58.22;100502.69;4825476;29;20427;-74
2022/06/21 06:10:03;;;;;;;12.32;7.78;;;;;;;27.67;57.72;100501.16;4803646;29;20055;-74
2022/06/21 06:12:37;;;;;;;8.95;6.97;;;;;;;27.69;58.05;100495.94;4805946;29;20390;-74
2022/06/21 06:15:08;;;;;;;11.82;7.57;;;;;;;27.85;57.08;100506.78;4805130;29;20051;-74
2022/06/21 06:17:43;;;;;;;7.78;6.40;;;;;;;27.82;56.38;100507.59;4807307;29;20051;-74
2022/06/21 06:20:25;;;;;;;10.18;7.13;;;;;;;27.76;56.42;100512.78;4804882;29;20063;-74
2022/06/21 06:22:59;;;;;;;9.25;6.55;;;;;;;27.85;56.76;100512.41;4804838;29;20035;-74
2022/06/21 06:25:43;;;;;;;10.98;6.95;;;;;;;27.88;56.78;100522.84;4806422;29;20055;-75
2022/06/21 06:28:35;;;;;;;11.07;8.48;;;;;;;27.90;57.43;100509.19;4806579;29;20058;-74
2022/06/21 06:31:18;;;;;;;15.77;8.90;;;;;;;27.84;58.60;100507.97;4806452;29;20046;-74
2022/06/21 06:33:52;;;;;;;16.27;10.07;;;;;;;27.82;59.00;100516.03;4805353;29;20054;-75
2022/06/21 06:36:29;;;;;;;13.55;8.77;;;;;;;27.98;57.56;100514.81;4806335;29;20051;-74
2022/06/21 06:38:59;;;;;;;13.82;9.90;;;;;;;28.04;57.52;100510.38;4806410;29;20061;-74
2022/06/21 06:41:37;;;;;;;12.02;9.88;;;;;;;28.13;56.80;100507.16;4805297;29;20054;-75
2022/06/21 06:44:14;;;;;;;19.88;10.55;;;;;;;28.16;57.38;100509.16;4806386;29;20490;-74
2022/06/21 06:46:45;;;;;;;17.42;10.27;;;;;;;28.11;57.12;100513.19;4806186;29;20376;-75
2022/06/21 06:49:37;;;;;;;15.15;9.10;;;;;;;28.27;56.34;100506.38;4806254;29;20046;-74
2022/06/21 06:52:15;;;;;;;10.13;6.85;;;;;;;28.31;55.70;100507.16;4806203;29;20043;-74
2022/06/21 06:54:52;;;;;;;13.85;7.53;;;;;;;28.34;55.32;100509.16;4806083;29;20058;-75
2022/06/21 06:57:30;;;;;;;13.25;7.13;;;;;;;28.38;54.87;100515.59;4806164;29;20055;-74
2022/06/21 07:00:10;;;;;;;11.63;6.75;;;;;;;28.49;54.75;100520.41;4805876;29;20062;-74
2022/06/21 07:02:47;;;;;;;9.02;6.90;;;;;;;28.44;54.18;100516.78;4805981;29;20058;-75
2022/06/21 07:05:29;;;;;;;13.20;7.40;;;;;;;28.49;54.63;100511.94;4805894;29;20407;-75
2022/06/21 07:08:02;;;;;;;10.38;6.25;;;;;;;28.62;54.25;100515.94;4805924;29;20058;-75
2022/06/21 07:10:30;;;;;;;7.88;6.38;;;;;;;28.77;53.53;100510.22;4823974;29;20047;-75
2022/06/21 07:12:58;;;;;;;7.97;5.53;;;;;;;28.83;53.52;100500.97;4824089;29;20058;-75
2022/06/21 07:15:42;;;;;;;9.07;5.15;;;;;;;29.00;52.94;100506.97;4823864;29;20050;-75
2022/06/21 07:18:26;;;;;;;7.13;5.97;;;;;;;29.00;52.23;100515.41;4830455;29;20057;-75
2022/06/21 07:21:05;;;;;;;14.57;6.35;;;;;;;28.84;53.56;100513.03;4842066;29;20061;-75
2022/06/21 07:23:33;;;;;;;10.73;6.57;;;;;;;28.83;53.27;100515.06;4842047;29;20415;-75
2022/06/21 07:26:10;;;;;;;8.63;6.70;;;;;;;28.97;53.14;100507.78;4841934;29;20054;-75
2022/06/21 07:28:44;;;;;;;11.45;7.32;;;;;;;29.10;52.45;100519.38;4841999;29;20061;-76
2022/06/21 07:31:15;;;;;;;;;;;;;;;29.12;52.39;100513.34;4842284;29;20387;-75
2022/06/21 07:34:01;;;;;;;7.78;5.55;;;;;;;29.04;53.58;100507.75;4841980;29;20379;-75
2022/06/21 07:36:45;;;;;;;6.20;5.38;;;;;;;29.15;51.92;100510.50;4841640;29;20062;-76
2022/06/21 07:39:19;;;;;;;6.75;4.90;;;;;;;29.17;51.97;100510.91;4825686;29;20410;-76
2022/06/21 07:42:09;;;;;;;6.20;5.63;;;;;;;29.29;51.29;100515.25;4841639;29;20489;-76
2022/06/21 07:45:03;;;;;;;8.77;4.97;;;;;;;29.41;50.89;100508.34;4841641;29;20057;-75
2022/06/21 07:47:40;;;;;;;7.45;5.60;;;;;;;29.23;51.37;100505.66;4829795;29;20073;-75
2022/06/21 07:50:49;;;;;;;7.35;5.57;;;;;;;29.27;51.63;100499.97;4841621;29;20054;-76
2022/06/21 07:53:27;;;;;;;7.03;5.50;;;;;;;29.40;51.86;100492.66;4841369;29;20049;-76
2022/06/21 07:56:14;;;;;;;6.20;5.45;;;;;;;29.53;52.35;100493.00;4822483;29;20054;-75
2022/06/21 07:58:45;;;;;;;7.50;5.90;;;;;;;29.57;51.07;100490.16;4840427;29;20053;-75
2022/06/21 08:07:23;;;;;;;5.80;4.75;;;;;;;29.93;49.19;100472.94;4841276;29;20501;-75
2022/06/21 08:10:30;;;;;;;6.63;4.53;;;;;;;30.00;48.22;100464.38;4841340;29;20081;-75
2022/06/21 08:12:58;;;;;;;4.80;4.38;;;;;;;30.12;48.13;100465.13;4784859;29;20059;-75
2022/06/21 08:15:34;;;;;;;7.45;3.88;;;;;;;30.28;47.59;100454.06;4802052;29;20057;-75
2022/06/21 08:18:21;;;;;;;11.88;5.53;;;;;;;30.33;47.11;100474.56;4841372;29;20050;-75
2022/06/21 08:20:57;;;;;;;7.45;5.10;;;;;;;30.27;47.38;100466.56;4841147;29;20077;-75
2022/06/21 08:23:40;;;;;;;6.28;4.72;;;;;;;30.27;46.93;100460.94;4841424;29;20050;-76
2022/06/21 08:26:20;;;;;;;6.22;5.28;;;;;;;30.41;47.38;100461.97;4841142;29;20049;-75
2022/06/21 08:28:56;;;;;;;5.65;4.75;;;;;;;30.49;46.33;100457.84;4841269;29;20058;-75
2022/06/21 08:31:32;;;;;;;8.05;4.85;;;;;;;30.50;46.40;100464.31;4841298;29;20057;-75
2022/06/21 08:34:19;;;;;;;5.90;4.55;;;;;;;30.54;46.68;100465.84;4841430;29;20058;-75
2022/06/21 08:36:55;;;;;;;5.13;4.63;;;;;;;30.60;46.62;100462.56;4841596;29;20057;-75
2022/06/21 08:39:25;;;;;;;;;;;;;;;30.62;46.40;100457.28;4841788;29;20050;-75
2022/06/21 08:42:12;;;;;;;4.95;4.45;;;;;;;30.71;45.65;100451.97;4841082;29;19928;-75
2022/06/21 08:45:40;;;;;;;6.35;4.78;;;;;;;30.64;45.05;100461.28;4841118;29;20046;-75
2022/06/21 08:48:02;;;;;;;7.60;4.13;;;;;;;30.69;44.78;100462.91;4841000;29;20057;-75
2022/06/21 08:51:04;;;;;;;4.38;3.85;;;;;;;30.93;44.19;100458.13;4824827;29;20046;-76
2022/06/21 08:54:01;;;;;;;8.18;4.57;;;;;;;31.06;43.61;100454.72;4841034;29;20370;-75
2022/06/21 08:57:10;;;;;;;4.57;3.90;;;;;;;31.25;42.63;100450.41;4824731;29;20417;-76
2022/06/21 08:59:43;;;;;;;5.55;3.35;;;;;;;31.41;42.13;100446.16;4841079;29;20402;-76
2022/06/21 09:02:40;;;;;;;4.40;3.88;;;;;;;31.50;41.69;100440.75;4840852;29;20116;-75
2022/06/21 09:05:33;;;;;;;5.03;3.30;;;;;;;31.59;41.44;100437.38;4842935;29;20410;-76
2022/06/21 09:08:06;;;;;;;4.53;3.33;;;;;;;31.74;41.15;100440.75;4844428;29;20061;-76
2022/06/21 09:10:47;;;;;;;;;;;;;;;31.74;40.64;100441.56;4844797;29;20053;-75
2022/06/21 09:13:25;;;;;;;5.07;3.58;;;;;;;31.86;40.68;100442.19;4844419;29;20333;-76
2022/06/21 09:16:19;;;;;;;4.22;3.28;;;;;;;31.89;40.61;100453.44;4825633;29;20053;-76
2022/06/21 09:19:08;;;;;;;5.03;3.50;;;;;;;32.06;39.78;100447.09;4837149;29;20052;-76
2022/06/21 09:22:12;;;;;;;3.70;3.40;;;;;;;31.99;40.18;100445.19;4832561;29;20482;-76
2022/06/21 09:24:47;;;;;;;6.68;3.55;;;;;;;32.07;39.51;100446.66;4820195;29;20413;-76
2022/06/21 09:27:44;;;;;;;4.47;2.97;;;;;;;32.17;39.49;100444.84;4844150;29;20058;-76
2022/06/21 09:30:26;;;;;;;4.38;3.53;;;;;;;32.25;39.07;100440.66;4841172;29;20061;-76
2022/06/21 09:33:06;;;;;;;8.13;3.83;;;;;;;32.04;39.61;100437.00;4843958;29;20505;-76
2022/06/21 09:35:34;;;;;;;3.92;3.53;;;;;;;32.17;39.57;100427.88;4844047;29;20069;-76
2022/06/21 09:38:21;;;;;;;3.75;3.40;;;;;;;32.14;39.83;100421.06;4843854;29;20049;-76
2022/06/21 09:40:55;;;;;;;6.20;4.25;;;;;;;32.21;39.25;100427.81;4843941;29;20065;-76
2022/06/21 09:43:48;;;;;;;4.93;4.15;;;;;;;32.25;39.42;100418.00;4827350;29;20072;-76
2022/06/21 09:46:46;;;;;;;5.10;4.10;;;;;;;32.06;40.01;100416.78;4843756;29;20065;-76
2022/06/21 09:49:53;;;;;;;5.97;4.15;;;;;;;32.04;40.32;100416.38;4843820;29;20054;-76
2022/06/21 09:53:02;;;;;;;6.30;4.10;;;;;;;32.21;39.76;100417.28;4769133;30;20521;-76
2022/06/21 09:56:15;;;;;;;6.43;3.85;;;;;;;32.30;38.76;100411.06;4843695;29;20054;-76
2022/06/21 09:58:52;;;;;;;5.38;3.63;;;;;;;32.36;38.77;100412.13;4840489;29;20045;-76
2022/06/21 10:01:23;;;;;;;3.95;3.63;;;;;;;32.44;38.38;100410.78;4843557;29;20171;-76
2022/06/21 10:03:50;;;;;;;3.92;3.63;;;;;;;32.50;38.60;100411.03;4843411;29;20050;-76
2022/06/21 10:06:37;;;;;;;5.03;3.72;;;;;;;32.78;38.54;100408.81;4843453;29;20045;-76
2022/06/21 10:09:26;;;;;;;4.97;3.72;;;;;;;32.79;37.42;100395.47;4830697;29;20053;-76
2022/06/21 10:12:25;;;;;;;3.70;3.40;;;;;;;32.81;37.75;100395.81;4843344;29;20050;-76
2022/06/21 10:15:16;;;;;;;5.82;3.55;;;;;;;32.92;37.78;100399.19;4843374;29;20493;-77
2022/06/21 10:18:09;;;;;;;6.22;3.50;;;;;;;32.86;37.63;100403.81;4824698;29;20061;-76
2022/06/21 10:21:22;;;;;;;3.60;3.30;;;;;;;32.93;37.57;100406.47;4825312;29;20121;-76
2022/06/21 10:24:05;;;;;;;7.05;3.97;;;;;;;33.08;36.99;100406.16;4796569;29;20055;-76
2022/06/21 10:26:40;;;;;;;7.90;3.70;;;;;;;33.24;36.92;100402.53;4831326;29;20069;-76
2022/06/21 10:29:31;;;;;;;3.78;3.47;;;;;;;33.20;37.13;100404.66;4837046;29;20065;-76
2022/06/21 10:32:20;;;;;;;3.72;3.40;;;;;;;33.25;36.97;100406.97;4820311;29;20053;-77
2022/06/21 10:35:28;;;;;;;5.93;3.75;;;;;;;33.34;36.85;100412.00;4837436;29;20090;-76
2022/06/21 10:38:01;;;;;;;5.97;3.90;;;;;;;33.55;36.37;100407.06;4801860;29;20046;-76
2022/06/21 10:40:47;;;;;;;3.85;3.47;;;;;;;33.44;36.41;100408.13;4825836;29;20046;-76
2022/06/21 10:43:26;;;;;;;4.35;3.40;;;;;;;33.26;36.84;100404.94;4823379;29;20042;-76
2022/06/21 10:45:59;;;;;;;4.63;3.55;;;;;;;33.49;36.53;100409.63;4824945;29;20401;-76
2022/06/21 10:48:52;;;;;;;4.13;3.33;;;;;;;33.67;36.13;100414.84;4822189;29;20482;-76
2022/06/21 10:51:34;;;;;;;9.80;3.60;;;;;;;33.84;35.86;100414.81;4821661;29;20085;-76
2022/06/21 10:54:35;;;;;;;3.58;3.28;;;;;;;33.81;35.74;100407.22;4827218;29;20039;-76
2022/06/21 10:57:21;;;;;;;3.20;2.90;;;;;;;33.76;34.89;100400.03;4822031;29;20521;-74
2022/06/21 11:03:11;;;;;;;6.88;3.25;;;;;;;33.98;34.56;100391.75;4807765;29;20051;-75
2022/06/21 11:06:10;;;;;;;5.93;3.35;;;;;;;33.92;34.82;100377.28;4821954;29;20042;-75
2022/06/21 11:09:10;;;;;;;3.17;2.90;;;;;;;34.09;34.59;100388.63;4822058;29;20062;-75
2022/06/21 11:11:56;;;;;;;3.60;2.97;;;;;;;34.18;34.34;100390.78;4823781;29;20070;-74
2022/06/21 11:14:50;;;;;;;7.82;3.05;;;;;;;34.33;33.95;100381.84;4814883;29;20498;-75
2022/06/21 11:17:39;;;;;;;6.07;3.13;;;;;;;34.54;34.26;100388.94;4832162;29;20058;-74
2022/06/21 11:20:46;;;;;;;4.18;3.15;;;;;;;34.68;33.59;100391.38;4830819;29;20054;-75
2022/06/21 11:23:36;;;;;;;3.53;3.22;;;;;;;34.54;33.85;100386.91;4813687;29;20079;-75
2022/06/21 11:26:13;;;;;;;3.45;3.15;;;;;;;34.57;34.55;100376.69;4828731;29;20050;-75
2022/06/21 11:29:24;;;;;;;3.65;3.35;;;;;;;34.56;34.31;100375.88;4826841;29;20045;-75
2022/06/21 11:32:01;;;;;;;5.07;3.55;;;;;;;34.34;34.23;100364.38;4820620;29;20042;-75
2022/06/21 11:34:38;;;;;;;5.85;3.42;;;;;;;34.36;34.89;100373.25;4820634;29;20494;-75
2022/06/21 11:37:28;;;;;;;5.35;3.50;;;;;;;34.55;34.50;100360.06;4820686;29;20058;-74
2022/06/21 11:40:04;;;;;;;3.53;3.08;;;;;;;34.63;34.83;100357.84;4809631;29;20759;-75
2022/06/21 11:42:50;;;;;;;5.60;3.28;;;;;;;34.71;34.38;100347.06;4827236;29;20050;-75
2022/06/21 11:45:33;;;;;;;5.75;3.55;;;;;;;34.73;34.23;100344.53;4829578;29;20060;-75
2022/06/21 11:48:07;;;;;;;5.50;3.22;;;;;;;34.88;34.12;100335.56;4826502;29;20418;-75
2022/06/21 11:51:04;;;;;;;6.03;3.30;;;;;;;34.93;33.97;100332.94;4824374;29;20046;-75
2022/06/21 11:54:17;;;;;;;6.00;3.72;;;;;;;34.98;34.38;100328.72;4802378;29;20406;-75
2022/06/21 11:57:03;;;;;;;7.85;3.22;;;;;;;34.89;34.34;100322.94;4822203;29;20053;-75
2022/06/21 11:59:43;;;;;;;4.47;3.47;;;;;;;35.17;34.07;100320.41;4824740;29;20573;-75
2022/06/21 12:02:37;;;;;;;4.10;2.78;;;;;;;35.30;33.72;100312.66;4822065;29;20043;-74
2022/06/21 12:05:29;;;;;;;6.25;3.58;;;;;;;35.46;33.41;100310.88;4810815;29;20065;-75
2022/06/21 12:08:26;;;;;;;5.10;3.33;;;;;;;35.63;33.18;100306.63;4821954;29;20454;-75
2022/06/21 12:11:13;;;;;;;4.60;3.60;;;;;;;35.78;33.08;100306.09;4828757;29;20050;-75
2022/06/21 12:14:04;;;;;;;6.65;3.28;;;;;;;35.60;32.96;100304.72;4806860;29;20834;-75
2022/06/21 12:16:55;;;;;;;7.38;3.50;;;;;;;35.73;32.44;100303.84;4826719;29;20042;-75
2022/06/21 12:19:34;;;;;;;3.53;3.20;;;;;;;35.67;32.72;100288.63;4813486;29;20692;-75
2022/06/21 12:22:15;;;;;;;3.58;3.08;;;;;;;35.53;32.51;100304.16;4822299;29;20038;-75
2022/06/21 12:24:43;;;;;;;8.10;3.40;;;;;;;35.78;32.37;100306.88;4820993;29;20038;-75
2022/06/21 12:27:11;;;;;;;4.55;3.40;;;;;;;35.66;32.53;100301.28;4823679;29;20053;-75
2022/06/21 12:29:41;;;;;;;5.28;3.33;;;;;;;35.64;32.78;100304.56;4817423;29;20061;-75
2022/06/21 12:32:28;;;;;;;5.25;3.17;;;;;;;35.88;31.46;100313.44;4826028;29;20066;-76
2022/06/21 12:35:06;;;;;;;3.50;3.17;;;;;;;35.88;31.98;100313.44;4806304;29;20087;-74
2022/06/21 12:37:44;;;;;;;5.60;3.13;;;;;;;35.84;32.40;100303.44;4822910;29;20057;-74
2022/06/21 12:40:34;;;;;;;6.22;3.50;;;;;;;35.89;32.35;100303.66;4826989;29;20057;-74